LPMA/FNC METAR and TAF weather

Enter ICAO airport designator
Station Type Date Time Source
LPMA METAR 2023/02/04 01:00 UTC NOAA

LPMA 040100Z 36009KT 9999 FEW015 15/10 Q1028


Station Type Date Time Source
LPMA Decoded METAR 2023/02/04 01:00 UTC NOAA

Aeroporto Da Madeira, Portugal (LPMA) 32-41-52N 016-46-28W
Feb 03, 2023 - 08:00 PM EST / 2023.02.04 0100 UTC
Wind: from the N (360 degrees) at 10 MPH (9 KT):0
Visibility: greater than 7 mile(s):0
Sky conditions: mostly clear
Temperature: 59 F (15 C)
Dew Point: 50 F (10 C)
Relative Humidity: 72%
Pressure (altimeter): 30.36 in. Hg (1028 hPa)
ob: LPMA 040100Z 36009KT 9999 FEW015 15/10 Q1028
cycle: 1

Station Type Date Time Source
LPMA TAF 2023/02/03 18:18 UTC NOAA

TAF LPMA 031700Z 0318/0418 04008KT 9999 SCT015
BECMG 0319/0321 35008KT
BECMG 0410/0412 02013KT SCT015 BKN030

Example: see airport list